sensor_id;sensor_type;location;lat;lon;timestamp;pressure;altitude;pressure_sealevel;temperature;humidity
11987;BME280;6053;51.382;6.768;2023-08-07T00:00:13;100788.78;;;15.67;100.00
11987;BME280;6053;51.382;6.768;2023-08-07T00:02:44;100779.22;;;15.26;100.00
11987;BME280;6053;51.382;6.768;2023-08-07T00:05:13;100796.41;;;15.23;100.00
11987;BME280;6053;51.382;6.768;2023-08-07T00:07:44;100788.91;;;15.23;100.00
11987;BME280;6053;51.382;6.768;2023-08-07T00:10:17;100787.22;;;15.22;100.00
11987;BME280;6053;51.382;6.768;2023-08-07T00:12:46;100784.06;;;15.41;100.00
11987;BME280;6053;51.382;6.768;2023-08-07T00:15:14;100796.28;;;14.85;100.00
11987;BME280;6053;51.382;6.768;2023-08-07T00:17:43;100796.09;;;15.19;100.00
11987;BME280;6053;51.382;6.768;2023-08-07T00:20:12;100794.38;;;15.40;100.00
11987;BME280;6053;51.382;6.768;2023-08-07T00:22:40;100791.78;;;15.06;100.00
11987;BME280;6053;51.382;6.768;2023-08-07T00:25:13;100787.47;;;15.48;100.00
11987;BME280;6053;51.382;6.768;2023-08-07T00:27:42;100806.22;;;15.30;100.00
11987;BME280;6053;51.382;6.768;2023-08-07T00:30:11;100809.19;;;15.24;100.00
11987;BME280;6053;51.382;6.768;2023-08-07T00:32:40;100805.72;;;15.39;100.00
11987;BME280;6053;51.382;6.768;2023-08-07T00:35:09;100792.34;;;15.36;100.00
11987;BME280;6053;51.382;6.768;2023-08-07T00:37:37;100804.47;;;15.51;100.00
11987;BME280;6053;51.382;6.768;2023-08-07T00:40:11;100800.28;;;15.22;100.00
11987;BME280;6053;51.382;6.768;2023-08-07T00:42:44;100801.56;;;15.36;100.00
11987;BME280;6053;51.382;6.768;2023-08-07T00:45:15;100803.13;;;15.27;100.00
11987;BME280;6053;51.382;6.768;2023-08-07T00:47:45;100805.06;;;15.53;100.00
11987;BME280;6053;51.382;6.768;2023-08-07T00:50:14;100817.94;;;15.11;100.00
11987;BME280;6053;51.382;6.768;2023-08-07T00:52:43;100819.50;;;15.23;100.00
11987;BME280;6053;51.382;6.768;2023-08-07T00:55:12;100814.78;;;15.29;100.00
11987;BME280;6053;51.382;6.768;2023-08-07T00:57:43;100816.63;;;15.18;100.00
11987;BME280;6053;51.382;6.768;2023-08-07T01:00:16;100819.94;;;14.66;100.00
11987;BME280;6053;51.382;6.768;2023-08-07T01:02:51;100814.91;;;15.12;100.00
11987;BME280;6053;51.382;6.768;2023-08-07T01:05:26;100820.34;;;15.29;100.00
11987;BME280;6053;51.382;6.768;2023-08-07T01:07:58;100813.53;;;15.42;100.00
11987;BME280;6053;51.382;6.768;2023-08-07T01:10:34;100817.81;;;15.76;100.00
11987;BME280;6053;51.382;6.768;2023-08-07T01:13:16;100822.50;;;15.22;100.00
11987;BME280;6053;51.382;6.768;2023-08-07T01:15:49;100817.25;;;14.98;100.00
11987;BME280;6053;51.382;6.768;2023-08-07T01:18:21;100815.06;;;14.56;100.00
11987;BME280;6053;51.382;6.768;2023-08-07T01:20:50;100817.19;;;14.93;100.00
11987;BME280;6053;51.382;6.768;2023-08-07T01:23:23;100818.94;;;14.99;100.00
11987;BME280;6053;51.382;6.768;2023-08-07T01:25:55;100818.06;;;14.99;100.00
11987;BME280;6053;51.382;6.768;2023-08-07T01:28:29;100815.25;;;14.94;100.00
11987;BME280;6053;51.382;6.768;2023-08-07T01:31:05;100821.25;;;15.35;100.00
11987;BME280;6053;51.382;6.768;2023-08-07T01:33:46;100809.72;;;15.21;100.00
11987;BME280;6053;51.382;6.768;2023-08-07T01:36:19;100815.34;;;15.26;100.00
11987;BME280;6053;51.382;6.768;2023-08-07T01:38:54;100823.69;;;15.53;100.00
11987;BME280;6053;51.382;6.768;2023-08-07T01:41:27;100820.81;;;15.16;100.00
11987;BME280;6053;51.382;6.768;2023-08-07T01:44:02;100819.81;;;15.27;100.00
11987;BME280;6053;51.382;6.768;2023-08-07T01:46:34;100818.16;;;14.60;100.00
11987;BME280;6053;51.382;6.768;2023-08-07T01:49:09;100804.53;;;14.80;100.00
11987;BME280;6053;51.382;6.768;2023-08-07T01:51:40;100814.25;;;15.05;100.00
11987;BME280;6053;51.382;6.768;2023-08-07T01:54:13;100807.31;;;14.80;100.00
11987;BME280;6053;51.382;6.768;2023-08-07T01:56:42;100817.31;;;15.03;100.00
11987;BME280;6053;51.382;6.768;2023-08-07T01:59:10;100814.97;;;15.17;100.00
11987;BME280;6053;51.382;6.768;2023-08-07T02:01:42;100813.78;;;14.86;100.00
11987;BME280;6053;51.382;6.768;2023-08-07T02:04:11;100822.00;;;14.76;100.00
11987;BME280;6053;51.382;6.768;2023-08-07T02:06:39;100823.50;;;14.89;100.00
11987;BME280;6053;51.382;6.768;2023-08-07T02:09:12;100831.41;;;14.97;100.00
11987;BME280;6053;51.382;6.768;2023-08-07T02:11:43;100827.84;;;15.01;100.00
11987;BME280;6053;51.382;6.768;2023-08-07T02:14:12;100823.69;;;14.21;100.00
11987;BME280;6053;51.382;6.768;2023-08-07T02:16:41;100828.88;;;15.17;100.00
11987;BME280;6053;51.382;6.768;2023-08-07T02:19:09;100831.47;;;14.80;100.00
11987;BME280;6053;51.382;6.768;2023-08-07T02:21:38;100823.00;;;15.14;100.00
11987;BME280;6053;51.382;6.768;2023-08-07T02:24:06;100821.34;;;14.91;100.00
11987;BME280;6053;51.382;6.768;2023-08-07T02:26:42;100826.75;;;14.42;100.00
11987;BME280;6053;51.382;6.768;2023-08-07T02:29:16;100828.91;;;14.73;100.00
11987;BME280;6053;51.382;6.768;2023-08-07T02:31:50;100840.75;;;14.69;100.00
11987;BME280;6053;51.382;6.768;2023-08-07T02:34:19;100841.63;;;14.69;100.00
11987;BME280;6053;51.382;6.768;2023-08-07T02:36:48;100845.94;;;15.04;100.00
11987;BME280;6053;51.382;6.768;2023-08-07T02:39:16;100854.19;;;14.99;100.00
11987;BME280;6053;51.382;6.768;2023-08-07T02:41:46;100851.22;;;14.61;100.00
11987;BME280;6053;51.382;6.768;2023-08-07T02:44:15;100866.75;;;15.50;100.00
11987;BME280;6053;51.382;6.768;2023-08-07T02:46:47;100859.50;;;15.00;100.00
11987;BME280;6053;51.382;6.768;2023-08-07T02:49:16;100859.16;;;15.19;100.00
11987;BME280;6053;51.382;6.768;2023-08-07T02:51:44;100849.13;;;14.35;100.00
11987;BME280;6053;51.382;6.768;2023-08-07T02:54:19;100855.41;;;14.64;100.00
11987;BME280;6053;51.382;6.768;2023-08-07T02:56:49;100856.97;;;14.99;100.00
11987;BME280;6053;51.382;6.768;2023-08-07T02:59:17;100862.03;;;14.80;100.00
11987;BME280;6053;51.382;6.768;2023-08-07T03:01:46;100861.81;;;14.65;100.00
11987;BME280;6053;51.382;6.768;2023-08-07T03:04:21;100851.59;;;14.92;100.00
11987;BME280;6053;51.382;6.768;2023-08-07T03:06:49;100867.13;;;14.66;100.00
11987;BME280;6053;51.382;6.768;2023-08-07T03:09:24;100855.94;;;15.05;100.00
11987;BME280;6053;51.382;6.768;2023-08-07T03:11:54;100859.44;;;14.95;100.00
11987;BME280;6053;51.382;6.768;2023-08-07T03:14:22;100859.75;;;15.21;100.00
11987;BME280;6053;51.382;6.768;2023-08-07T03:16:54;100858.53;;;14.90;100.00
11987;BME280;6053;51.382;6.768;2023-08-07T03:19:22;100858.91;;;14.98;100.00
11987;BME280;6053;51.382;6.768;2023-08-07T03:21:52;100862.69;;;15.09;100.00
11987;BME280;6053;51.382;6.768;2023-08-07T03:24:29;100861.50;;;14.44;100.00
11987;BME280;6053;51.382;6.768;2023-08-07T03:26:59;100853.63;;;14.75;100.00
11987;BME280;6053;51.382;6.768;2023-08-07T03:29:31;100852.19;;;14.50;100.00
11987;BME280;6053;51.382;6.768;2023-08-07T03:31:59;100848.94;;;14.58;100.00
11987;BME280;6053;51.382;6.768;2023-08-07T03:34:28;100853.25;;;14.49;100.00
11987;BME280;6053;51.382;6.768;2023-08-07T03:37:02;100855.31;;;14.98;100.00
11987;BME280;6053;51.382;6.768;2023-08-07T03:39:31;100863.97;;;14.79;100.00
11987;BME280;6053;51.382;6.768;2023-08-07T03:42:04;100865.41;;;14.65;100.00
11987;BME280;6053;51.382;6.768;2023-08-07T03:44:36;100862.88;;;15.02;100.00
11987;BME280;6053;51.382;6.768;2023-08-07T03:47:10;100863.81;;;14.91;100.00
11987;BME280;6053;51.382;6.768;2023-08-07T03:49:39;100872.06;;;15.03;100.00
11987;BME280;6053;51.382;6.768;2023-08-07T03:52:11;100867.56;;;15.02;100.00
11987;BME280;6053;51.382;6.768;2023-08-07T03:54:39;100865.63;;;14.25;100.00
11987;BME280;6053;51.382;6.768;2023-08-07T03:57:12;100874.53;;;14.44;100.00
11987;BME280;6053;51.382;6.768;2023-08-07T03:59:47;100872.56;;;15.00;100.00
11987;BME280;6053;51.382;6.768;2023-08-07T04:02:15;100874.34;;;15.33;100.00
11987;BME280;6053;51.382;6.768;2023-08-07T04:04:44;100871.09;;;14.53;100.00
11987;BME280;6053;51.382;6.768;2023-08-07T04:07:12;100877.13;;;14.67;100.00
11987;BME280;6053;51.382;6.768;2023-08-07T04:09:41;100865.13;;;14.83;100.00
11987;BME280;6053;51.382;6.768;2023-08-07T04:12:17;100860.38;;;15.28;100.00
11987;BME280;6053;51.382;6.768;2023-08-07T04:14:45;100867.81;;;15.22;100.00
11987;BME280;6053;51.382;6.768;2023-08-07T04:17:14;100865.78;;;14.91;100.00
11987;BME280;6053;51.382;6.768;2023-08-07T04:19:46;100861.16;;;15.23;100.00
11987;BME280;6053;51.382;6.768;2023-08-07T04:22:14;100872.06;;;15.03;100.00
11987;BME280;6053;51.382;6.768;2023-08-07T04:24:46;100868.81;;;15.38;100.00
11987;BME280;6053;51.382;6.768;2023-08-07T04:27:16;100880.78;;;14.90;100.00
11987;BME280;6053;51.382;6.768;2023-08-07T04:29:44;100875.53;;;14.93;100.00
11987;BME280;6053;51.382;6.768;2023-08-07T04:32:22;100873.00;;;14.92;100.00
11987;BME280;6053;51.382;6.768;2023-08-07T04:35:04;100871.66;;;15.16;100.00
11987;BME280;6053;51.382;6.768;2023-08-07T04:37:36;100880.38;;;15.03;100.00
11987;BME280;6053;51.382;6.768;2023-08-07T04:40:05;100870.97;;;15.31;100.00
11987;BME280;6053;51.382;6.768;2023-08-07T04:42:37;100871.50;;;15.55;100.00
11987;BME280;6053;51.382;6.768;2023-08-07T04:45:15;100873.34;;;15.66;100.00
11987;BME280;6053;51.382;6.768;2023-08-07T04:47:44;100875.38;;;15.05;100.00
11987;BME280;6053;51.382;6.768;2023-08-07T04:50:13;100879.53;;;14.80;100.00
11987;BME280;6053;51.382;6.768;2023-08-07T04:52:41;100869.72;;;14.95;100.00
11987;BME280;6053;51.382;6.768;2023-08-07T04:55:10;100882.09;;;14.65;100.00
11987;BME280;6053;51.382;6.768;2023-08-07T04:57:43;100876.91;;;14.52;100.00
11987;BME280;6053;51.382;6.768;2023-08-07T05:00:12;100876.66;;;15.41;100.00
11987;BME280;6053;51.382;6.768;2023-08-07T05:02:41;100877.91;;;14.46;100.00
11987;BME280;6053;51.382;6.768;2023-08-07T05:05:10;100889.63;;;14.87;100.00
11987;BME280;6053;51.382;6.768;2023-08-07T05:07:41;100879.84;;;14.28;100.00
11987;BME280;6053;51.382;6.768;2023-08-07T05:10:10;100871.44;;;13.56;100.00
11987;BME280;6053;51.382;6.768;2023-08-07T05:12:47;100878.28;;;13.82;100.00
11987;BME280;6053;51.382;6.768;2023-08-07T05:15:16;100874.56;;;14.27;100.00
11987;BME280;6053;51.382;6.768;2023-08-07T05:17:44;100877.75;;;14.52;100.00
11987;BME280;6053;51.382;6.768;2023-08-07T05:20:13;100878.00;;;14.17;100.00
11987;BME280;6053;51.382;6.768;2023-08-07T05:22:44;100876.91;;;14.18;100.00
11987;BME280;6053;51.382;6.768;2023-08-07T05:25:13;100877.09;;;14.11;100.00
11987;BME280;6053;51.382;6.768;2023-08-07T05:27:43;100878.91;;;14.56;100.00
11987;BME280;6053;51.382;6.768;2023-08-07T05:30:13;100881.00;;;14.49;100.00
11987;BME280;6053;51.382;6.768;2023-08-07T05:32:42;100889.59;;;14.31;100.00
11987;BME280;6053;51.382;6.768;2023-08-07T05:35:17;100881.38;;;13.85;100.00
11987;BME280;6053;51.382;6.768;2023-08-07T05:37:49;100887.44;;;14.16;100.00
11987;BME280;6053;51.382;6.768;2023-08-07T05:40:17;100879.69;;;14.01;100.00
11987;BME280;6053;51.382;6.768;2023-08-07T05:42:49;100900.84;;;14.41;100.00
11987;BME280;6053;51.382;6.768;2023-08-07T05:45:19;100893.47;;;14.64;100.00
11987;BME280;6053;51.382;6.768;2023-08-07T05:47:47;100900.91;;;14.80;100.00
11987;BME280;6053;51.382;6.768;2023-08-07T05:50:18;100882.78;;;14.22;100.00
11987;BME280;6053;51.382;6.768;2023-08-07T05:52:50;100895.81;;;14.21;100.00
11987;BME280;6053;51.382;6.768;2023-08-07T05:55:18;100911.91;;;14.53;100.00
11987;BME280;6053;51.382;6.768;2023-08-07T05:57:47;100908.13;;;14.81;100.00
11987;BME280;6053;51.382;6.768;2023-08-07T06:00:18;100908.09;;;14.98;100.00
11987;BME280;6053;51.382;6.768;2023-08-07T06:02:47;100914.31;;;14.49;100.00
11987;BME280;6053;51.382;6.768;2023-08-07T06:05:16;100904.91;;;14.00;100.00
11987;BME280;6053;51.382;6.768;2023-08-07T06:07:45;100908.88;;;14.21;100.00
11987;BME280;6053;51.382;6.768;2023-08-07T06:10:13;100913.66;;;15.20;100.00
11987;BME280;6053;51.382;6.768;2023-08-07T06:12:44;100921.59;;;15.11;100.00
11987;BME280;6053;51.382;6.768;2023-08-07T06:15:13;100929.19;;;14.99;100.00
11987;BME280;6053;51.382;6.768;2023-08-07T06:17:45;100925.47;;;15.10;100.00
11987;BME280;6053;51.382;6.768;2023-08-07T06:20:16;100920.41;;;14.85;100.00
11987;BME280;6053;51.382;6.768;2023-08-07T06:22:48;100929.63;;;14.69;100.00
11987;BME280;6053;51.382;6.768;2023-08-07T06:25:19;100935.16;;;15.07;100.00
11987;BME280;6053;51.382;6.768;2023-08-07T06:27:51;100938.38;;;15.21;100.00
11987;BME280;6053;51.382;6.768;2023-08-07T06:30:19;100937.25;;;15.17;100.00
11987;BME280;6053;51.382;6.768;2023-08-07T06:32:49;100934.34;;;14.51;100.00
11987;BME280;6053;51.382;6.768;2023-08-07T06:35:21;100944.56;;;14.84;100.00
11987;BME280;6053;51.382;6.768;2023-08-07T06:37:49;100942.44;;;15.57;100.00
11987;BME280;6053;51.382;6.768;2023-08-07T06:40:20;100947.19;;;14.74;100.00
11987;BME280;6053;51.382;6.768;2023-08-07T06:42:49;100961.66;;;15.15;100.00
11987;BME280;6053;51.382;6.768;2023-08-07T06:45:18;100957.56;;;15.01;100.00
11987;BME280;6053;51.382;6.768;2023-08-07T06:47:51;100956.81;;;15.27;100.00
11987;BME280;6053;51.382;6.768;2023-08-07T06:50:19;100955.03;;;14.60;100.00
11987;BME280;6053;51.382;6.768;2023-08-07T06:52:48;100964.84;;;14.85;100.00
11987;BME280;6053;51.382;6.768;2023-08-07T06:55:16;100960.81;;;14.93;100.00
11987;BME280;6053;51.382;6.768;2023-08-07T06:57:46;100962.81;;;14.97;100.00
11987;BME280;6053;51.382;6.768;2023-08-07T07:00:15;100966.13;;;15.16;100.00
11987;BME280;6053;51.382;6.768;2023-08-07T07:02:51;100963.81;;;14.69;100.00
11987;BME280;6053;51.382;6.768;2023-08-07T07:05:26;100973.09;;;15.19;100.00
11987;BME280;6053;51.382;6.768;2023-08-07T07:07:55;100976.84;;;15.07;100.00
11987;BME280;6053;51.382;6.768;2023-08-07T07:10:23;100978.16;;;14.49;100.00
11987;BME280;6053;51.382;6.768;2023-08-07T07:12:52;100981.50;;;15.24;100.00
11987;BME280;6053;51.382;6.768;2023-08-07T07:15:21;100985.31;;;15.18;100.00
11987;BME280;6053;51.382;6.768;2023-08-07T07:17:53;100987.00;;;14.80;100.00
11987;BME280;6053;51.382;6.768;2023-08-07T07:20:22;100989.69;;;14.75;100.00
11987;BME280;6053;51.382;6.768;2023-08-07T07:22:54;100998.41;;;15.00;100.00
11987;BME280;6053;51.382;6.768;2023-08-07T07:25:22;101002.66;;;15.47;100.00
11987;BME280;6053;51.382;6.768;2023-08-07T07:27:51;101002.41;;;14.54;100.00
11987;BME280;6053;51.382;6.768;2023-08-07T07:30:25;101010.75;;;14.71;100.00
11987;BME280;6053;51.382;6.768;2023-08-07T07:33:01;101005.59;;;14.79;100.00
11987;BME280;6053;51.382;6.768;2023-08-07T07:35:29;101017.41;;;15.08;100.00
11987;BME280;6053;51.382;6.768;2023-08-07T07:38:04;101022.28;;;14.79;100.00
11987;BME280;6053;51.382;6.768;2023-08-07T07:40:33;101014.94;;;14.90;100.00
11987;BME280;6053;51.382;6.768;2023-08-07T07:43:02;101025.78;;;14.75;100.00
11987;BME280;6053;51.382;6.768;2023-08-07T07:45:31;101035.59;;;15.16;100.00
11987;BME280;6053;51.382;6.768;2023-08-07T07:48:02;101028.88;;;14.95;100.00
11987;BME280;6053;51.382;6.768;2023-08-07T07:50:34;101035.22;;;14.91;100.00
11987;BME280;6053;51.382;6.768;2023-08-07T07:53:02;101044.41;;;15.30;100.00
11987;BME280;6053;51.382;6.768;2023-08-07T07:55:34;101040.50;;;14.92;100.00
11987;BME280;6053;51.382;6.768;2023-08-07T07:58:08;101043.66;;;15.18;100.00
11987;BME280;6053;51.382;6.768;2023-08-07T08:00:36;101055.81;;;15.72;100.00
11987;BME280;6053;51.382;6.768;2023-08-07T08:03:13;101058.91;;;15.54;100.00
11987;BME280;6053;51.382;6.768;2023-08-07T08:05:41;101059.09;;;15.86;100.00
11987;BME280;6053;51.382;6.768;2023-08-07T08:08:10;101057.34;;;15.19;100.00
11987;BME280;6053;51.382;6.768;2023-08-07T08:10:42;101068.34;;;15.70;100.00
11987;BME280;6053;51.382;6.768;2023-08-07T08:13:18;101067.47;;;16.13;100.00
11987;BME280;6053;51.382;6.768;2023-08-07T08:15:50;101069.72;;;15.72;100.00
11987;BME280;6053;51.382;6.768;2023-08-07T08:18:20;101078.22;;;15.83;100.00
11987;BME280;6053;51.382;6.768;2023-08-07T08:20:48;101081.78;;;16.00;100.00
11987;BME280;6053;51.382;6.768;2023-08-07T08:23:23;101086.03;;;16.08;100.00
11987;BME280;6053;51.382;6.768;2023-08-07T08:25:51;101100.19;;;16.06;100.00
11987;BME280;6053;51.382;6.768;2023-08-07T08:28:20;101101.41;;;16.15;100.00
11987;BME280;6053;51.382;6.768;2023-08-07T08:30:57;101100.47;;;15.83;100.00
11987;BME280;6053;51.382;6.768;2023-08-07T08:33:30;101108.09;;;16.14;100.00
11987;BME280;6053;51.382;6.768;2023-08-07T08:36:05;101112.00;;;15.91;100.00
11987;BME280;6053;51.382;6.768;2023-08-07T08:38:33;101108.03;;;15.87;100.00
11987;BME280;6053;51.382;6.768;2023-08-07T08:41:09;101102.13;;;16.06;100.00
11987;BME280;6053;51.382;6.768;2023-08-07T08:43:46;101101.28;;;16.54;100.00
11987;BME280;6053;51.382;6.768;2023-08-07T08:46:15;101114.09;;;16.28;100.00
11987;BME280;6053;51.382;6.768;2023-08-07T08:48:50;101114.19;;;16.65;100.00
11987;BME280;6053;51.382;6.768;2023-08-07T08:51:20;101120.38;;;17.37;100.00
11987;BME280;6053;51.382;6.768;2023-08-07T08:53:53;101128.19;;;17.03;100.00
11987;BME280;6053;51.382;6.768;2023-08-07T08:56:27;101131.28;;;16.74;100.00
11987;BME280;6053;51.382;6.768;2023-08-07T08:58:56;101125.34;;;16.65;100.00
11987;BME280;6053;51.382;6.768;2023-08-07T09:01:25;101135.69;;;16.43;100.00
11987;BME280;6053;51.382;6.768;2023-08-07T09:03:56;101143.72;;;16.39;100.00
11987;BME280;6053;51.382;6.768;2023-08-07T09:06:26;101138.22;;;16.71;100.00
11987;BME280;6053;51.382;6.768;2023-08-07T09:08:58;101143.03;;;17.08;100.00
11987;BME280;6053;51.382;6.768;2023-08-07T09:11:27;101137.19;;;16.78;100.00
11987;BME280;6053;51.382;6.768;2023-08-07T09:13:56;101134.50;;;16.12;100.00
11987;BME280;6053;51.382;6.768;2023-08-07T09:16:28;101136.16;;;16.35;100.00
11987;BME280;6053;51.382;6.768;2023-08-07T09:18:59;101148.75;;;16.91;100.00
11987;BME280;6053;51.382;6.768;2023-08-07T09:21:31;101137.50;;;16.32;100.00
11987;BME280;6053;51.382;6.768;2023-08-07T09:24:00;101147.19;;;16.52;100.00
11987;BME280;6053;51.382;6.768;2023-08-07T09:26:36;101159.31;;;16.13;100.00
11987;BME280;6053;51.382;6.768;2023-08-07T09:29:10;101159.47;;;15.85;100.00
11987;BME280;6053;51.382;6.768;2023-08-07T09:31:42;101155.81;;;16.01;100.00
11987;BME280;6053;51.382;6.768;2023-08-07T09:34:20;101162.47;;;16.00;100.00
11987;BME280;6053;51.382;6.768;2023-08-07T09:36:48;101179.31;;;16.59;100.00
11987;BME280;6053;51.382;6.768;2023-08-07T09:39:24;101179.56;;;16.31;100.00
11987;BME280;6053;51.382;6.768;2023-08-07T09:41:56;101185.56;;;18.10;100.00
11987;BME280;6053;51.382;6.768;2023-08-07T09:44:25;101177.91;;;17.90;100.00
11987;BME280;6053;51.382;6.768;2023-08-07T09:47:11;101182.72;;;17.20;100.00
11987;BME280;6053;51.382;6.768;2023-08-07T09:49:45;101184.16;;;16.96;100.00
11987;BME280;6053;51.382;6.768;2023-08-07T09:52:15;101185.97;;;17.07;100.00
11987;BME280;6053;51.382;6.768;2023-08-07T09:54:44;101192.28;;;16.98;100.00
11987;BME280;6053;51.382;6.768;2023-08-07T09:57:15;101193.38;;;16.96;100.00
11987;BME280;6053;51.382;6.768;2023-08-07T09:59:50;101194.81;;;17.74;100.00
11987;BME280;6053;51.382;6.768;2023-08-07T10:02:20;101188.38;;;19.09;100.00
11987;BME280;6053;51.382;6.768;2023-08-07T10:04:53;101189.22;;;18.99;100.00
11987;BME280;6053;51.382;6.768;2023-08-07T10:07:22;101204.66;;;20.43;100.00
11987;BME280;6053;51.382;6.768;2023-08-07T10:09:52;101197.47;;;20.12;100.00
11987;BME280;6053;51.382;6.768;2023-08-07T10:12:21;101190.59;;;19.78;100.00
11987;BME280;6053;51.382;6.768;2023-08-07T10:14:51;101181.16;;;20.34;100.00
11987;BME280;6053;51.382;6.768;2023-08-07T10:17:20;101189.34;;;20.20;100.00
11987;BME280;6053;51.382;6.768;2023-08-07T10:19:51;101184.69;;;19.95;100.00
11987;BME280;6053;51.382;6.768;2023-08-07T10:22:25;101187.22;;;19.82;100.00
11987;BME280;6053;51.382;6.768;2023-08-07T10:24:57;101178.00;;;19.50;100.00
11987;BME280;6053;51.382;6.768;2023-08-07T10:27:32;101167.41;;;19.17;100.00
11987;BME280;6053;51.382;6.768;2023-08-07T10:30:07;101168.78;;;18.94;100.00
11987;BME280;6053;51.382;6.768;2023-08-07T10:32:37;101170.75;;;18.98;100.00
11987;BME280;6053;51.382;6.768;2023-08-07T10:35:08;101170.19;;;19.37;100.00
11987;BME280;6053;51.382;6.768;2023-08-07T10:37:41;101176.63;;;19.02;100.00
11987;BME280;6053;51.382;6.768;2023-08-07T10:40:13;101177.00;;;18.37;100.00
11987;BME280;6053;51.382;6.768;2023-08-07T10:43:13;101169.78;;;18.42;100.00
11987;BME280;6053;51.382;6.768;2023-08-07T10:45:45;101190.63;;;18.24;100.00
11987;BME280;6053;51.382;6.768;2023-08-07T10:48:18;101186.91;;;18.03;100.00
11987;BME280;6053;51.382;6.768;2023-08-07T10:50:51;101180.25;;;17.61;100.00
11987;BME280;6053;51.382;6.768;2023-08-07T10:53:31;101181.22;;;17.82;100.00
11987;BME280;6053;51.382;6.768;2023-08-07T10:56:06;101202.09;;;17.75;100.00
11987;BME280;6053;51.382;6.768;2023-08-07T10:58:37;101202.31;;;17.68;100.00
11987;BME280;6053;51.382;6.768;2023-08-07T11:01:22;101194.63;;;18.43;100.00
11987;BME280;6053;51.382;6.768;2023-08-07T11:03:52;101199.84;;;19.23;100.00
11987;BME280;6053;51.382;6.768;2023-08-07T11:06:27;101196.75;;;19.35;100.00
11987;BME280;6053;51.382;6.768;2023-08-07T11:08:56;101193.69;;;19.05;100.00
11987;BME280;6053;51.382;6.768;2023-08-07T11:11:26;101202.25;;;20.11;100.00
11987;BME280;6053;51.382;6.768;2023-08-07T11:13:57;101207.75;;;20.91;100.00
11987;BME280;6053;51.382;6.768;2023-08-07T11:16:26;101200.56;;;20.75;100.00
11987;BME280;6053;51.382;6.768;2023-08-07T11:18:55;101199.72;;;20.20;100.00
11987;BME280;6053;51.382;6.768;2023-08-07T11:21:27;101189.16;;;19.96;100.00
11987;BME280;6053;51.382;6.768;2023-08-07T11:24:00;101205.44;;;19.53;100.00
11987;BME280;6053;51.382;6.768;2023-08-07T11:26:35;101201.78;;;19.84;100.00
11987;BME280;6053;51.382;6.768;2023-08-07T11:29:03;101214.38;;;19.20;100.00
11987;BME280;6053;51.382;6.768;2023-08-07T11:31:32;101223.59;;;19.10;100.00
11987;BME280;6053;51.382;6.768;2023-08-07T11:34:01;101221.69;;;18.32;100.00
11987;BME280;6053;51.382;6.768;2023-08-07T11:36:41;101233.97;;;19.10;100.00
11987;BME280;6053;51.382;6.768;2023-08-07T11:39:24;101221.91;;;19.04;100.00
11987;BME280;6053;51.382;6.768;2023-08-07T11:41:53;101230.91;;;19.37;100.00
11987;BME280;6053;51.382;6.768;2023-08-07T11:44:23;101234.22;;;18.93;100.00
11987;BME280;6053;51.382;6.768;2023-08-07T11:46:54;101229.19;;;19.10;100.00
11987;BME280;6053;51.382;6.768;2023-08-07T11:49:23;101230.28;;;18.89;100.00
11987;BME280;6053;51.382;6.768;2023-08-07T11:51:55;101218.59;;;19.43;100.00
11987;BME280;6053;51.382;6.768;2023-08-07T11:54:23;101220.19;;;20.05;100.00
11987;BME280;6053;51.382;6.768;2023-08-07T11:56:53;101225.84;;;19.54;100.00
11987;BME280;6053;51.382;6.768;2023-08-07T11:59:22;101228.94;;;19.42;100.00
11987;BME280;6053;51.382;6.768;2023-08-07T12:01:54;101234.25;;;19.13;100.00
11987;BME280;6053;51.382;6.768;2023-08-07T12:04:27;101239.56;;;19.40;100.00
11987;BME280;6053;51.382;6.768;2023-08-07T12:07:00;101230.03;;;19.87;100.00
11987;BME280;6053;51.382;6.768;2023-08-07T12:09:31;101240.31;;;20.17;100.00
11987;BME280;6053;51.382;6.768;2023-08-07T12:12:03;101230.84;;;19.98;100.00
11987;BME280;6053;51.382;6.768;2023-08-07T12:14:36;101239.47;;;20.22;100.00
11987;BME280;6053;51.382;6.768;2023-08-07T12:17:09;101242.34;;;19.91;100.00
11987;BME280;6053;51.382;6.768;2023-08-07T12:19:38;101238.44;;;19.92;100.00
11987;BME280;6053;51.382;6.768;2023-08-07T12:22:11;101237.28;;;20.09;100.00
11987;BME280;6053;51.382;6.768;2023-08-07T12:24:43;101232.28;;;19.90;100.00
11987;BME280;6053;51.382;6.768;2023-08-07T12:27:12;101240.97;;;19.89;100.00
11987;BME280;6053;51.382;6.768;2023-08-07T12:29:40;101233.50;;;20.44;100.00
11987;BME280;6053;51.382;6.768;2023-08-07T12:32:12;101233.25;;;20.40;100.00
11987;BME280;6053;51.382;6.768;2023-08-07T12:34:40;101223.19;;;20.34;100.00
11987;BME280;6053;51.382;6.768;2023-08-07T12:37:13;101223.47;;;20.33;100.00
11987;BME280;6053;51.382;6.768;2023-08-07T12:39:42;101237.44;;;20.43;100.00
11987;BME280;6053;51.382;6.768;2023-08-07T12:42:13;101239.50;;;20.82;100.00
11987;BME280;6053;51.382;6.768;2023-08-07T12:44:51;101241.59;;;20.61;100.00
11987;BME280;6053;51.382;6.768;2023-08-07T12:47:20;101237.50;;;20.33;100.00
11987;BME280;6053;51.382;6.768;2023-08-07T12:49:48;101234.94;;;20.36;100.00
11987;BME280;6053;51.382;6.768;2023-08-07T12:52:18;101251.72;;;20.41;100.00
11987;BME280;6053;51.382;6.768;2023-08-07T12:54:47;101231.13;;;20.01;100.00
11987;BME280;6053;51.382;6.768;2023-08-07T12:57:18;101231.75;;;19.68;100.00
11987;BME280;6053;51.382;6.768;2023-08-07T12:59:47;101238.47;;;19.72;100.00
11987;BME280;6053;51.382;6.768;2023-08-07T13:02:16;101236.56;;;20.47;100.00
11987;BME280;6053;51.382;6.768;2023-08-07T13:04:50;101244.84;;;21.23;100.00
11987;BME280;6053;51.382;6.768;2023-08-07T13:07:20;101233.88;;;20.87;94.59
11987;BME280;6053;51.382;6.768;2023-08-07T13:09:49;101238.94;;;20.85;95.14